Pagina principale
METAR-TAF:

METAR-TAF

Aeroporti :

Aurillac, Francia

latitudine: 44-53N, longitudine: 002-25E, altezza: 639 m

Osservazione

Il bollettino è stato emesso 20 minuti fa, alle 23:30 UTC
Vento 6 kt da sud-est
Temperature 13°C
Umidità 54%
Pressione 1019 hPa
Visibilità 10 km o più

METAR: LFLW 292330Z AUTO 13006KT 9999 ////// 13/04 Q1019

Ora: 01:50 (23:50 UTC)


TAF: mancante

Osservazioni e previsioni meteorologiche di più di 4000 aeroporti (messaggi METAR e TAF).

Le stazioni disponibili sono rappresentate dai dischi gialli e rossi sulla carta.

Puntare il mouse per vedere il nome della stazione.

Clicca sopra per visualizzare le osservazioni e previsioni meteorologiche.

Per cambiare la mappa : fare clic sui pulsanti verdi con una croce nera per ingrandire, il pulsante verde con un trattino per diminuire, o sulla freccia verde per le mappe adiacenti.


METAR-TAF: